Sutton, ND (58484)

12:58 PM CST die 22o February, anno 2018 (GMT -0600)
Ramsey Farms Fert Plant | | Change Station

Elev 1463 ft 47.40 °N, 98.43 °W | Updated 12 seconds ago

Serena
Serena
17.5 °F
Feels Like 6 °F
N
9.0
Ventus Variabilis Ventus from Magis Auster quam Eurus

Hodie
High -- | Low -- °F
--% Chance of Precip.
Yesterday
High -- | Low -- °F
Precip. -- in
Pressio 30.34 in
Visibilitas 10.0 milia passuum
Clouds Serena
Frigus Venti 6 °F
Frigus in quo Ros apparet 9 °F
Umor 70%
Rainfall 0.00 in
Snow Depth Not available.
7:26 AM 6:08 PM
Waxing Crescent, 44% visible
METAR KS32 221855Z AUTO 20012KT 10SM CLR M08/M12 A3034 RMK AO2
Pressio 30.34 in
Visibilitas 10.0 milia passuum
Clouds Serena
Frigus Venti 6 °F
Frigus in quo Ros apparet 9 °F
Umor 70%
Rainfall 0.00 in
Snow Depth Not available.
7:26 AM 6:08 PM
Waxing Crescent, 44% visible
METAR KS32 221855Z AUTO 20012KT 10SM CLR M08/M12 A3034 RMK AO2

Get Severe Weather Alerts

Thanks for signing up!

Be on the lookout for a verification email in your inbox.

You'll start receiving the daily forecast at 6 AM.

×

10-Day Weather Forecast

Almanac

Astronomy

Feb. 22, 2018 Rise Set
Actual Time
Civil Twilight
Nautical Twilight
Astronomical Twilight
Moon
Length Of Visible Light
Length of Day
Tomorrow will be .
, % of the Moon is Illuminated

Today's Extremes

State Highs State Lows

Community

WunderPhotos

Category 6

Welcome to Category 6. This is the collective home for Weather Underground's featured writeups by Dr. Jeff Masters (right), Bob Henson (left), Chris Burt, and other regular contributors.

Nearby

Air Quality

  Air Quality AQ Index Pollutant
Not available.

Snow Depth

Station Depth Elevation

Earthquake Activity

City Distance Mag. Time & Date
Minimum magnitude displayed is 2.5.

Coastal Water Temperatures

Locus Calor

Stations

Nearby Weather Stations

Station Location Temp Frigus Venti Frigus in quo Ros apparet Umor Ventus Precip. Elev Renovata Type
                   

Watches & Warnings

There are currently no watches in effect.